sensor_id;sensor_type;location;lat;lon;timestamp;temperature;humidity
49821;DHT22;36893;52.520;13.450;2022-11-03T00:07:49;23.20;73.40
49821;DHT22;36893;52.520;13.450;2022-11-03T00:17:49;23.20;73.50
49821;DHT22;36893;52.520;13.450;2022-11-03T00:27:53;23.20;73.50
49821;DHT22;36893;52.520;13.450;2022-11-03T00:37:55;23.20;73.60
49821;DHT22;36893;52.520;13.450;2022-11-03T00:47:55;23.10;73.50
49821;DHT22;36893;52.520;13.450;2022-11-03T00:58:15;23.10;73.50
49821;DHT22;36893;52.520;13.450;2022-11-03T01:08:15;23.10;73.50
49821;DHT22;36893;52.520;13.450;2022-11-03T01:18:16;23.10;73.50
49821;DHT22;36893;52.520;13.450;2022-11-03T01:28:17;23.10;73.50
49821;DHT22;36893;52.520;13.450;2022-11-03T01:38:17;23.10;73.50
49821;DHT22;36893;52.520;13.450;2022-11-03T01:48:24;23.10;73.50
49821;DHT22;36893;52.520;13.450;2022-11-03T01:58:32;23.10;73.60
49821;DHT22;36893;52.520;13.450;2022-11-03T02:08:39;23.10;73.60
49821;DHT22;36893;52.520;13.450;2022-11-03T02:18:42;23.00;73.60
49821;DHT22;36893;52.520;13.450;2022-11-03T02:28:44;23.00;73.50
49821;DHT22;36893;52.520;13.450;2022-11-03T02:39:10;23.00;73.60
49821;DHT22;36893;52.520;13.450;2022-11-03T02:49:09;23.00;73.60
49821;DHT22;36893;52.520;13.450;2022-11-03T02:59:14;23.00;73.60
49821;DHT22;36893;52.520;13.450;2022-11-03T03:09:26;22.90;73.60
49821;DHT22;36893;52.520;13.450;2022-11-03T03:30:05;22.90;73.60
49821;DHT22;36893;52.520;13.450;2022-11-03T03:40:10;22.90;73.60
49821;DHT22;36893;52.520;13.450;2022-11-03T03:50:11;22.90;73.60
49821;DHT22;36893;52.520;13.450;2022-11-03T04:00:13;22.90;73.60
49821;DHT22;36893;52.520;13.450;2022-11-03T04:10:16;22.90;73.60
49821;DHT22;36893;52.520;13.450;2022-11-03T04:20:19;22.90;73.60
49821;DHT22;36893;52.520;13.450;2022-11-03T04:30:38;22.80;73.60
49821;DHT22;36893;52.520;13.450;2022-11-03T04:40:46;22.80;73.60
49821;DHT22;36893;52.520;13.450;2022-11-03T04:50:56;22.80;73.60
49821;DHT22;36893;52.520;13.450;2022-11-03T05:00:59;22.80;73.60
49821;DHT22;36893;52.520;13.450;2022-11-03T05:11:16;22.80;73.70
49821;DHT22;36893;52.520;13.450;2022-11-03T05:21:21;22.80;73.90
49821;DHT22;36893;52.520;13.450;2022-11-03T05:31:27;22.80;74.00
49821;DHT22;36893;52.520;13.450;2022-11-03T05:41:29;22.80;74.20
49821;DHT22;36893;52.520;13.450;2022-11-03T05:51:35;22.80;74.30
49821;DHT22;36893;52.520;13.450;2022-11-03T06:01:38;22.70;73.60
49821;DHT22;36893;52.520;13.450;2022-11-03T06:11:39;22.50;73.10
49821;DHT22;36893;52.520;13.450;2022-11-03T06:21:42;22.30;72.70
49821;DHT22;36893;52.520;13.450;2022-11-03T06:31:53;22.00;72.50
49821;DHT22;36893;52.520;13.450;2022-11-03T06:41:55;22.20;72.90
49821;DHT22;36893;52.520;13.450;2022-11-03T06:51:57;22.30;72.60
49821;DHT22;36893;52.520;13.450;2022-11-03T07:01:59;22.40;72.60
49821;DHT22;36893;52.520;13.450;2022-11-03T07:12:00;22.40;72.60
49821;DHT22;36893;52.520;13.450;2022-11-03T07:22:04;22.50;72.80
49821;DHT22;36893;52.520;13.450;2022-11-03T07:32:14;22.50;72.90
49821;DHT22;36893;52.520;13.450;2022-11-03T07:42:23;22.50;73.00
49821;DHT22;36893;52.520;13.450;2022-11-03T07:52:25;22.50;73.10
49821;DHT22;36893;52.520;13.450;2022-11-03T08:02:38;22.50;73.10
49821;DHT22;36893;52.520;13.450;2022-11-03T08:12:44;22.60;73.60
49821;DHT22;36893;52.520;13.450;2022-11-03T08:22:44;22.80;73.30
49821;DHT22;36893;52.520;13.450;2022-11-03T08:32:45;22.80;73.30
49821;DHT22;36893;52.520;13.450;2022-11-03T08:42:46;22.90;73.40
49821;DHT22;36893;52.520;13.450;2022-11-03T08:52:46;23.00;73.50
49821;DHT22;36893;52.520;13.450;2022-11-03T09:02:47;23.00;73.50
49821;DHT22;36893;52.520;13.450;2022-11-03T09:12:48;23.10;73.50
49821;DHT22;36893;52.520;13.450;2022-11-03T09:22:48;23.10;73.40
49821;DHT22;36893;52.520;13.450;2022-11-03T09:32:49;23.20;73.70
49821;DHT22;36893;52.520;13.450;2022-11-03T09:42:50;23.10;73.70
49821;DHT22;36893;52.520;13.450;2022-11-03T09:52:51;23.10;73.60
49821;DHT22;36893;52.520;13.450;2022-11-03T10:02:53;23.10;73.50
49821;DHT22;36893;52.520;13.450;2022-11-03T10:12:54;23.10;72.20
49821;DHT22;36893;52.520;13.450;2022-11-03T10:22:55;23.00;70.60
49821;DHT22;36893;52.520;13.450;2022-11-03T10:32:56;22.90;70.00
49821;DHT22;36893;52.520;13.450;2022-11-03T10:42:57;22.90;69.40
49821;DHT22;36893;52.520;13.450;2022-11-03T10:52:58;22.90;69.80
49821;DHT22;36893;52.520;13.450;2022-11-03T11:02:59;23.00;69.00
49821;DHT22;36893;52.520;13.450;2022-11-03T11:13:22;23.00;68.80
49821;DHT22;36893;52.520;13.450;2022-11-03T11:33:30;23.00;69.00
49821;DHT22;36893;52.520;13.450;2022-11-03T11:43:31;23.00;69.00
49821;DHT22;36893;52.520;13.450;2022-11-03T11:53:40;22.90;69.10
49821;DHT22;36893;52.520;13.450;2022-11-03T12:03:42;23.00;69.70
49821;DHT22;36893;52.520;13.450;2022-11-03T12:13:47;23.00;69.90
49821;DHT22;36893;52.520;13.450;2022-11-03T12:23:50;23.00;70.20
49821;DHT22;36893;52.520;13.450;2022-11-03T12:33:51;23.00;70.30
49821;DHT22;36893;52.520;13.450;2022-11-03T12:43:52;23.00;70.50
49821;DHT22;36893;52.520;13.450;2022-11-03T12:53:54;23.00;70.70
49821;DHT22;36893;52.520;13.450;2022-11-03T13:03:55;23.00;70.90
49821;DHT22;36893;52.520;13.450;2022-11-03T13:13:56;22.90;70.80
49821;DHT22;36893;52.520;13.450;2022-11-03T13:23:56;22.90;70.90
49821;DHT22;36893;52.520;13.450;2022-11-03T13:33:57;22.90;70.90
49821;DHT22;36893;52.520;13.450;2022-11-03T13:43:58;22.90;71.00
49821;DHT22;36893;52.520;13.450;2022-11-03T13:53:58;22.80;71.00
49821;DHT22;36893;52.520;13.450;2022-11-03T14:03:59;22.90;71.00
49821;DHT22;36893;52.520;13.450;2022-11-03T14:13:59;22.80;71.00
49821;DHT22;36893;52.520;13.450;2022-11-03T14:24:00;22.80;71.10
49821;DHT22;36893;52.520;13.450;2022-11-03T14:34:01;22.90;71.60
49821;DHT22;36893;52.520;13.450;2022-11-03T14:44:01;22.90;71.70
49821;DHT22;36893;52.520;13.450;2022-11-03T14:54:05;22.90;72.80
49821;DHT22;36893;52.520;13.450;2022-11-03T15:04:06;22.90;72.20
49821;DHT22;36893;52.520;13.450;2022-11-03T15:14:07;22.90;72.30
49821;DHT22;36893;52.520;13.450;2022-11-03T15:24:08;22.90;72.40
49821;DHT22;36893;52.520;13.450;2022-11-03T15:34:09;22.80;73.30
49821;DHT22;36893;52.520;13.450;2022-11-03T15:44:09;22.80;72.60
49821;DHT22;36893;52.520;13.450;2022-11-03T15:54:10;22.80;72.70
49821;DHT22;36893;52.520;13.450;2022-11-03T16:04:11;22.80;72.70
49821;DHT22;36893;52.520;13.450;2022-11-03T16:14:11;22.80;72.50
49821;DHT22;36893;52.520;13.450;2022-11-03T16:24:13;22.80;72.40
49821;DHT22;36893;52.520;13.450;2022-11-03T16:34:14;22.70;72.20
49821;DHT22;36893;52.520;13.450;2022-11-03T16:44:15;22.70;72.20
49821;DHT22;36893;52.520;13.450;2022-11-03T16:54:15;22.70;72.00
49821;DHT22;36893;52.520;13.450;2022-11-03T17:04:16;22.60;72.00
49821;DHT22;36893;52.520;13.450;2022-11-03T17:14:17;22.60;72.00
49821;DHT22;36893;52.520;13.450;2022-11-03T17:24:17;22.60;72.10
49821;DHT22;36893;52.520;13.450;2022-11-03T17:34:22;22.60;72.00
49821;DHT22;36893;52.520;13.450;2022-11-03T17:44:23;22.60;72.00
49821;DHT22;36893;52.520;13.450;2022-11-03T17:54:27;22.60;72.40
49821;DHT22;36893;52.520;13.450;2022-11-03T18:04:29;22.70;73.10
49821;DHT22;36893;52.520;13.450;2022-11-03T18:14:30;22.80;73.90
49821;DHT22;36893;52.520;13.450;2022-11-03T18:24:31;22.90;74.90
49821;DHT22;36893;52.520;13.450;2022-11-03T18:34:32;22.90;75.60
49821;DHT22;36893;52.520;13.450;2022-11-03T18:44:33;22.90;76.00
49821;DHT22;36893;52.520;13.450;2022-11-03T18:54:35;22.90;76.30
49821;DHT22;36893;52.520;13.450;2022-11-03T19:04:36;22.90;76.50
49821;DHT22;36893;52.520;13.450;2022-11-03T19:14:38;22.90;76.50
49821;DHT22;36893;52.520;13.450;2022-11-03T19:24:40;22.80;76.60
49821;DHT22;36893;52.520;13.450;2022-11-03T19:34:41;22.80;76.50
49821;DHT22;36893;52.520;13.450;2022-11-03T19:44:42;22.80;76.60
49821;DHT22;36893;52.520;13.450;2022-11-03T19:54:45;22.80;76.70
49821;DHT22;36893;52.520;13.450;2022-11-03T20:04:47;22.80;76.80
49821;DHT22;36893;52.520;13.450;2022-11-03T20:14:47;22.70;76.70
49821;DHT22;36893;52.520;13.450;2022-11-03T20:24:57;22.70;76.70
49821;DHT22;36893;52.520;13.450;2022-11-03T20:35:00;22.70;76.90
49821;DHT22;36893;52.520;13.450;2022-11-03T20:45:00;22.70;76.90
49821;DHT22;36893;52.520;13.450;2022-11-03T20:55:01;22.60;76.80
49821;DHT22;36893;52.520;13.450;2022-11-03T21:05:11;22.60;76.80
49821;DHT22;36893;52.520;13.450;2022-11-03T21:15:14;22.60;76.80
49821;DHT22;36893;52.520;13.450;2022-11-03T21:25:34;22.60;76.80
49821;DHT22;36893;52.520;13.450;2022-11-03T21:35:35;22.70;76.90
49821;DHT22;36893;52.520;13.450;2022-11-03T21:45:37;22.60;76.70
49821;DHT22;36893;52.520;13.450;2022-11-03T21:55:37;22.60;76.70
49821;DHT22;36893;52.520;13.450;2022-11-03T22:05:39;22.60;76.60
49821;DHT22;36893;52.520;13.450;2022-11-03T22:15:40;22.60;76.60
49821;DHT22;36893;52.520;13.450;2022-11-03T22:25:58;22.50;76.40
49821;DHT22;36893;52.520;13.450;2022-11-03T22:36:19;22.50;76.40
49821;DHT22;36893;52.520;13.450;2022-11-03T22:46:23;22.50;76.30
49821;DHT22;36893;52.520;13.450;2022-11-03T22:56:24;22.50;76.30
49821;DHT22;36893;52.520;13.450;2022-11-03T23:06:28;22.40;76.20
49821;DHT22;36893;52.520;13.450;2022-11-03T23:16:37;22.40;76.00
49821;DHT22;36893;52.520;13.450;2022-11-03T23:26:39;22.40;76.00
49821;DHT22;36893;52.520;13.450;2022-11-03T23:36:40;22.40;75.90
49821;DHT22;36893;52.520;13.450;2022-11-03T23:46:41;22.40;75.90
49821;DHT22;36893;52.520;13.450;2022-11-03T23:57:00;22.40;75.80
